Time,TemperatureF,DewpointF,PressureIn,WindDirection,WindDirectionDegrees,WindSpeedMPH,WindSpeedGustMPH,Humidity,HourlyPrecipIn,Conditions,Clouds,dailyrainin,SoftwareType,DateUTC
2013-03-09 00:01:00,26.0,23.0,29.64,NNW,331,2.0,3.0,88,0.00,,,0.00,,2013-03-09 07:01:00,
2013-03-09 00:11:00,26.0,23.0,29.64,NNW,331,2.0,3.0,88,0.00,,,0.00,,2013-03-09 07:11:00,
2013-03-09 00:21:00,27.0,23.0,29.60,WNW,299,1.0,5.0,86,0.00,,,0.00,,2013-03-09 07:21:00,
2013-03-09 00:31:00,26.0,22.0,29.60,WNW,293,1.0,2.0,86,0.00,,,0.00,,2013-03-09 07:31:00,
2013-03-09 00:41:00,26.0,22.0,29.60,WNW,293,1.0,2.0,86,0.00,,,0.00,,2013-03-09 07:41:00,
2013-03-09 00:52:00,26.0,22.0,29.59,WNW,283,1.0,2.0,86,0.00,,,0.00,,2013-03-09 07:52:00,
2013-03-09 01:01:00,26.0,22.0,29.59,WNW,283,1.0,2.0,86,0.00,,,0.00,,2013-03-09 08:01:00,
2013-03-09 01:11:00,26.0,22.0,29.59,WNW,283,1.0,2.0,86,0.00,,,0.00,,2013-03-09 08:11:00,
2013-03-09 01:22:00,24.0,20.0,29.59,WNW,283,0.0,2.0,86,0.00,,,0.00,,2013-03-09 08:22:00,
2013-03-09 01:31:00,24.0,20.0,29.59,WNW,283,1.0,2.0,86,0.00,,,0.00,,2013-03-09 08:31:00,
2013-03-09 01:42:00,24.0,20.0,29.59,WNW,283,1.0,2.0,86,0.00,,,0.00,,2013-03-09 08:42:00,
2013-03-09 01:52:00,24.0,21.0,29.58,NNW,338,5.0,6.0,87,0.00,,,0.00,,2013-03-09 08:52:00,
2013-03-09 02:01:00,24.0,21.0,29.58,NNW,338,1.0,6.0,87,0.00,,,0.00,,2013-03-09 09:01:00,
2013-03-09 02:12:00,24.0,21.0,29.58,NNW,338,1.0,6.0,87,0.00,,,0.00,,2013-03-09 09:12:00,
2013-03-09 02:21:00,24.0,20.0,29.57,NNW,340,0.0,2.0,86,0.00,,,0.00,,2013-03-09 09:21:00,
2013-03-09 02:31:00,23.0,20.0,29.57,NNW,340,1.0,1.0,87,0.00,,,0.00,,2013-03-09 09:31:00,
2013-03-09 02:41:00,23.0,20.0,29.57,NNW,340,1.0,1.0,87,0.00,,,0.00,,2013-03-09 09:41:00,
2013-03-09 02:52:00,23.0,20.0,29.60,NNW,340,0.0,1.0,87,0.00,,,0.00,,2013-03-09 09:52:00,
2013-03-09 03:01:00,23.0,20.0,29.60,NNW,340,1.0,3.0,88,0.00,,,0.00,,2013-03-09 10:01:00,
2013-03-09 03:11:00,23.0,20.0,29.60,NNW,340,1.0,3.0,88,0.00,,,0.00,,2013-03-09 10:11:00,
2013-03-09 03:21:00,23.0,20.0,29.58,NW,314,2.0,3.0,88,0.00,,,0.00,,2013-03-09 10:21:00,
2013-03-09 03:31:00,23.0,20.0,29.58,NW,314,2.0,3.0,88,0.00,,,0.00,,2013-03-09 10:31:00,
2013-03-09 03:41:00,23.0,20.0,29.58,NW,314,2.0,3.0,88,0.00,,,0.00,,2013-03-09 10:41:00,
2013-03-09 03:52:00,23.0,20.0,29.57,NW,312,0.0,2.0,87,0.00,,,0.00,,2013-03-09 10:52:00,
2013-03-09 04:01:00,23.0,20.0,29.57,NW,312,0.0,2.0,87,0.00,,,0.00,,2013-03-09 11:01:00,
2013-03-09 04:11:00,23.0,20.0,29.57,NW,312,0.0,2.0,87,0.00,,,0.00,,2013-03-09 11:11:00,
2013-03-09 04:21:00,24.0,21.0,29.57,NW,312,2.0,3.0,88,0.00,,,0.00,,2013-03-09 11:21:00,
2013-03-09 04:32:00,24.0,21.0,29.57,NW,312,1.0,3.0,88,0.00,,,0.00,,2013-03-09 11:32:00,
2013-03-09 04:42:00,24.0,21.0,29.57,NW,312,1.0,3.0,88,0.00,,,0.00,,2013-03-09 11:42:00,
2013-03-09 04:52:00,25.0,22.0,29.60,NNW,345,2.0,6.0,88,0.00,,,0.00,,2013-03-09 11:52:00,
2013-03-09 05:01:00,26.0,23.0,29.60,ENE,57,1.0,6.0,88,0.00,,,0.00,,2013-03-09 12:01:00,
2013-03-09 05:11:00,26.0,23.0,29.60,ENE,57,1.0,6.0,88,0.00,,,0.00,,2013-03-09 12:11:00,
2013-03-09 05:21:00,26.0,23.0,29.59,ENE,57,0.0,1.0,88,0.00,,,0.00,,2013-03-09 12:21:00,
2013-03-09 05:32:00,27.0,24.0,29.59,ENE,57,0.0,0.0,88,0.00,,,0.00,,2013-03-09 12:32:00,
2013-03-09 05:42:00,27.0,24.0,29.59,ENE,57,0.0,0.0,88,0.00,,,0.00,,2013-03-09 12:42:00,
2013-03-09 05:52:00,27.0,24.0,29.64,ENE,59,0.0,1.0,89,0.00,,,0.00,,2013-03-09 12:52:00,
2013-03-09 06:02:00,27.0,24.0,29.64,ENE,59,0.0,2.0,89,0.00,,,0.00,,2013-03-09 13:02:00,
2013-03-09 06:11:00,27.0,24.0,29.64,ENE,59,0.0,2.0,89,0.00,,,0.00,,2013-03-09 13:11:00,
2013-03-09 06:21:00,27.0,24.0,29.64,ENE,59,0.0,2.0,89,0.00,,,0.00,,2013-03-09 13:21:00,
2013-03-09 06:31:00,27.0,24.0,29.65,ENE,59,0.0,0.0,89,0.00,,,0.00,,2013-03-09 13:31:00,
2013-03-09 06:42:00,27.0,24.0,29.65,ENE,59,0.0,0.0,89,0.00,,,0.00,,2013-03-09 13:42:00,
2013-03-09 06:52:00,28.0,25.0,29.69,ENE,59,0.0,0.0,89,0.00,,,0.00,,2013-03-09 13:52:00,
2013-03-09 07:01:00,28.0,25.0,29.69,ENE,59,0.0,2.0,89,0.00,,,0.00,,2013-03-09 14:01:00,
2013-03-09 07:11:00,28.0,25.0,29.69,ENE,59,0.0,2.0,89,0.00,,,0.00,,2013-03-09 14:11:00,
2013-03-09 07:21:00,28.0,25.0,29.68,NE,56,0.0,2.0,89,0.00,,,0.00,,2013-03-09 14:21:00,
2013-03-09 07:31:00,28.0,25.0,29.68,NE,56,0.0,1.0,89,0.00,,,0.00,,2013-03-09 14:31:00,
2013-03-09 07:42:00,28.0,25.0,29.68,NE,56,0.0,1.0,89,0.00,,,0.00,,2013-03-09 14:42:00,
2013-03-09 07:52:00,28.0,25.0,29.70,SSE,155,0.0,2.0,89,0.00,,,0.00,,2013-03-09 14:52:00,
2013-03-09 08:01:00,28.0,25.0,29.70,SSE,155,0.0,2.0,89,0.00,,,0.00,,2013-03-09 15:01:00,
2013-03-09 08:11:00,28.0,25.0,29.70,SSE,155,0.0,2.0,89,0.00,,,0.00,,2013-03-09 15:11:00,
2013-03-09 08:22:00,29.0,26.0,29.71,East,97,2.0,6.0,90,0.00,,,0.00,,2013-03-09 15:22:00,
2013-03-09 08:31:00,29.0,26.0,29.71,East,89,3.0,6.0,90,0.00,,,0.00,,2013-03-09 15:31:00,
2013-03-09 08:42:00,29.0,26.0,29.71,East,89,3.0,6.0,90,0.00,,,0.00,,2013-03-09 15:42:00,
2013-03-09 08:52:00,29.0,26.0,29.73,East,88,5.0,7.0,90,0.00,,,0.00,,2013-03-09 15:52:00,
2013-03-09 09:01:00,29.0,26.0,29.74,East,91,4.0,7.0,89,0.00,,,0.00,,2013-03-09 16:01:00,
2013-03-09 09:11:00,29.0,26.0,29.74,East,91,4.0,7.0,89,0.00,,,0.00,,2013-03-09 16:11:00,
2013-03-09 09:21:00,28.0,25.0,29.75,East,88,3.0,8.0,89,0.00,,,0.00,,2013-03-09 16:21:00,
2013-03-09 09:32:00,28.0,25.0,29.75,East,81,2.0,6.0,90,0.00,,,0.00,,2013-03-09 16:32:00,
2013-03-09 09:41:00,28.0,25.0,29.75,East,81,2.0,6.0,90,0.00,,,0.00,,2013-03-09 16:41:00,
2013-03-09 09:52:00,28.0,25.0,29.77,NE,43,9.0,14.0,89,0.00,,,0.00,,2013-03-09 16:52:00,
2013-03-09 10:01:00,28.0,25.0,29.77,NE,39,10.0,14.0,88,0.00,,,0.00,,2013-03-09 17:01:00,
2013-03-09 10:11:00,28.0,25.0,29.77,NE,39,10.0,14.0,88,0.00,,,0.00,,2013-03-09 17:11:00,
2013-03-09 10:22:00,28.0,25.0,29.78,NE,35,10.0,14.0,87,0.00,,,0.00,,2013-03-09 17:22:00,
2013-03-09 10:32:00,28.0,25.0,29.78,NE,49,9.0,13.0,87,0.00,,,0.00,,2013-03-09 17:32:00,
2013-03-09 10:42:00,28.0,25.0,29.78,NE,49,9.0,13.0,87,0.00,,,0.00,,2013-03-09 17:42:00,
2013-03-09 10:52:00,28.0,25.0,29.79,NE,53,7.0,12.0,87,0.01,,,0.01,,2013-03-09 17:52:00,
2013-03-09 11:01:00,29.0,25.0,29.79,East,91,6.0,13.0,86,0.01,,,0.01,,2013-03-09 18:01:00,
2013-03-09 11:11:00,29.0,25.0,29.79,East,91,6.0,13.0,86,0.01,,,0.01,,2013-03-09 18:11:00,
2013-03-09 11:21:00,29.0,25.0,29.80,NE,47,6.0,20.0,85,0.03,,,0.03,,2013-03-09 18:21:00,
2013-03-09 11:31:00,29.0,25.0,29.80,NNE,22,7.0,13.0,86,0.03,,,0.03,,2013-03-09 18:31:00,
2013-03-09 11:42:00,29.0,25.0,29.80,NNE,22,7.0,13.0,86,0.03,,,0.03,,2013-03-09 18:42:00,
2013-03-09 11:52:00,28.0,24.0,29.78,ENE,63,12.0,18.0,84,0.04,,,0.04,,2013-03-09 18:52:00,
2013-03-09 12:01:00,28.0,24.0,29.81,ENE,60,5.0,14.0,86,0.03,,,0.04,,2013-03-09 19:01:00,
2013-03-09 12:11:00,28.0,24.0,29.81,ENE,60,5.0,14.0,86,0.03,,,0.04,,2013-03-09 19:11:00,
2013-03-09 12:22:00,28.0,24.0,29.81,ENE,62,7.0,16.0,85,0.02,,,0.05,,2013-03-09 19:22:00,
2013-03-09 12:32:00,28.0,24.0,29.81,NE,55,7.0,13.0,85,0.02,,,0.05,,2013-03-09 19:32:00,
2013-03-09 12:42:00,28.0,24.0,29.81,NE,55,7.0,13.0,85,0.02,,,0.05,,2013-03-09 19:42:00,
2013-03-09 12:52:00,28.0,25.0,29.85,North,357,9.0,14.0,87,0.02,,,0.06,,2013-03-09 19:52:00,
2013-03-09 13:01:00,27.0,23.0,29.85,NE,48,6.0,13.0,86,0.02,,,0.06,,2013-03-09 20:01:00,
2013-03-09 13:11:00,27.0,23.0,29.85,NE,48,6.0,13.0,86,0.02,,,0.06,,2013-03-09 20:11:00,
2013-03-09 13:21:00,27.0,24.0,29.85,SE,129,2.0,6.0,87,0.02,,,0.07,,2013-03-09 20:21:00,
2013-03-09 13:32:00,27.0,24.0,29.85,SE,128,2.0,6.0,88,0.03,,,0.08,,2013-03-09 20:32:00,
2013-03-09 13:42:00,27.0,24.0,29.85,SE,128,2.0,6.0,88,0.03,,,0.08,,2013-03-09 20:42:00,
2013-03-09 13:52:00,28.0,25.0,29.83,ESE,122,1.0,6.0,88,0.02,,,0.08,,2013-03-09 20:52:00,
2013-03-09 14:02:00,28.0,25.0,29.83,ENE,59,6.0,10.0,87,0.03,,,0.09,,2013-03-09 21:02:00,
2013-03-09 14:12:00,28.0,25.0,29.83,ENE,59,6.0,10.0,87,0.03,,,0.09,,2013-03-09 21:12:00,
2013-03-09 14:21:00,28.0,24.0,29.83,NNE,16,10.0,22.0,84,0.02,,,0.09,,2013-03-09 21:21:00,
2013-03-09 14:32:00,28.0,23.0,29.83,NNE,14,10.0,17.0,82,0.01,,,0.09,,2013-03-09 21:32:00,
2013-03-09 14:42:00,28.0,23.0,29.83,NNE,14,10.0,17.0,82,0.01,,,0.09,,2013-03-09 21:42:00,
2013-03-09 14:52:00,29.0,24.0,29.85,NNE,26,8.0,17.0,80,0.01,,,0.09,,2013-03-09 21:52:00,
2013-03-09 15:01:00,28.0,22.0,29.85,NNW,344,12.0,16.0,79,0.01,,,0.10,,2013-03-09 22:01:00,
2013-03-09 15:11:00,28.0,22.0,29.85,NNW,344,12.0,16.0,79,0.01,,,0.10,,2013-03-09 22:11:00,
2013-03-09 15:21:00,28.0,23.0,29.87,North,351,7.0,16.0,80,0.01,,,0.10,,2013-03-09 22:21:00,
2013-03-09 15:32:00,28.0,23.0,29.87,NNW,341,3.0,12.0,80,0.01,,,0.10,,2013-03-09 22:32:00,
2013-03-09 15:41:00,28.0,23.0,29.87,NNW,341,3.0,12.0,80,0.01,,,0.10,,2013-03-09 22:41:00,
2013-03-09 15:52:00,27.0,21.0,29.91,NNE,12,2.0,13.0,77,0.01,,,0.10,,2013-03-09 22:52:00,
2013-03-09 16:01:00,28.0,20.0,29.91,NNE,22,10.0,18.0,73,0.00,,,0.10,,2013-03-09 23:01:00,
2013-03-09 16:11:00,28.0,20.0,29.91,NNE,22,10.0,18.0,73,0.00,,,0.10,,2013-03-09 23:11:00,
2013-03-09 16:21:00,28.0,20.0,29.91,North,351,3.0,13.0,70,0.00,,,0.10,,2013-03-09 23:21:00,
2013-03-09 16:32:00,28.0,18.0,29.91,North,354,11.0,22.0,65,0.00,,,0.10,,2013-03-09 23:32:00,
2013-03-09 16:41:00,28.0,18.0,29.91,North,354,11.0,22.0,65,0.00,,,0.10,,2013-03-09 23:41:00,
2013-03-09 16:52:00,27.0,15.0,29.93,NNW,348,12.0,24.0,61,0.00,,,0.10,,2013-03-09 23:52:00,
2013-03-09 17:01:00,26.0,14.0,29.93,North,4,13.0,35.0,60,0.00,,,0.10,,2013-03-10 00:01:00,
2013-03-09 17:11:00,26.0,14.0,29.93,North,4,13.0,35.0,60,0.00,,,0.10,,2013-03-10 00:11:00,
2013-03-09 17:22:00,27.0,14.0,29.95,North,6,5.0,16.0,57,0.00,,,0.10,,2013-03-10 00:22:00,
2013-03-09 17:32:00,26.0,13.0,29.95,North,358,6.0,26.0,58,0.00,,,0.10,,2013-03-10 00:32:00,
2013-03-09 17:42:00,26.0,13.0,29.95,North,358,6.0,26.0,58,0.00,,,0.10,,2013-03-10 00:42:00,
2013-03-09 17:52:00,27.0,14.0,29.96,NNW,327,3.0,20.0,58,0.00,,,0.10,,2013-03-10 00:52:00,
2013-03-09 18:01:00,27.0,13.0,29.96,NW,322,7.0,16.0,56,0.00,,,0.10,,2013-03-10 01:01:00,
2013-03-09 18:11:00,27.0,13.0,29.96,NW,322,7.0,16.0,56,0.00,,,0.10,,2013-03-10 01:11:00,
2013-03-09 18:21:00,27.0,13.0,29.97,WNW,290,6.0,12.0,56,0.00,,,0.10,,2013-03-10 01:21:00,
2013-03-09 18:31:00,26.0,12.0,30.01,NW,309,6.0,20.0,54,0.00,,,0.10,,2013-03-10 01:31:00,
2013-03-09 18:41:00,26.0,12.0,30.01,NW,309,6.0,20.0,54,0.00,,,0.10,,2013-03-10 01:41:00,
2013-03-09 18:51:00,24.0,9.0,30.04,NNW,336,3.0,12.0,51,0.00,,,0.10,,2013-03-10 01:51:00,
2013-03-09 19:01:00,24.0,9.0,30.04,NNE,26,10.0,17.0,51,0.00,,,0.10,,2013-03-10 02:01:00,
2013-03-09 19:11:00,24.0,9.0,30.04,NNE,26,10.0,17.0,51,0.00,,,0.10,,2013-03-10 02:11:00,
2013-03-09 19:22:00,24.0,9.0,30.06,North,11,4.0,16.0,52,0.00,,,0.10,,2013-03-10 02:22:00,
2013-03-09 19:31:00,24.0,9.0,30.06,WNW,285,9.0,25.0,51,0.00,,,0.10,,2013-03-10 02:31:00,
2013-03-09 19:42:00,24.0,9.0,30.06,WNW,285,9.0,25.0,51,0.00,,,0.10,,2013-03-10 02:42:00,
2013-03-09 19:52:00,24.0,9.0,30.06,NNW,344,9.0,29.0,51,0.00,,,0.10,,2013-03-10 02:52:00,
2013-03-09 20:01:00,24.0,9.0,30.06,NNW,344,9.0,29.0,51,0.00,,,0.10,,2013-03-10 03:01:00,
2013-03-09 20:11:00,23.0,7.0,30.08,NNW,348,9.0,14.0,50,0.00,,,0.10,,2013-03-10 03:11:00,
2013-03-09 20:22:00,23.0,7.0,30.08,NNW,348,9.0,14.0,50,0.00,,,0.10,,2013-03-10 03:22:00,
2013-03-09 20:32:00,23.0,8.0,30.08,North,357,7.0,12.0,52,0.00,,,0.10,,2013-03-10 03:32:00,
2013-03-09 20:42:00,23.0,8.0,30.08,North,357,7.0,12.0,52,0.00,,,0.10,,2013-03-10 03:42:00,
2013-03-09 20:52:00,23.0,12.0,30.12,NNE,15,9.0,18.0,62,0.00,,,0.10,,2013-03-10 03:52:00,
2013-03-09 21:01:00,23.0,14.0,30.12,North,0,7.0,14.0,67,0.00,,,0.10,,2013-03-10 04:01:00,
2013-03-09 21:11:00,23.0,14.0,30.12,North,0,7.0,14.0,67,0.00,,,0.10,,2013-03-10 04:11:00,
2013-03-09 21:21:00,22.0,14.0,30.13,NNW,347,6.0,13.0,70,0.00,,,0.10,,2013-03-10 04:21:00,
2013-03-09 21:31:00,22.0,13.0,30.13,NNE,18,2.0,13.0,67,0.00,,,0.10,,2013-03-10 04:31:00,
2013-03-09 21:41:00,22.0,13.0,30.13,NNE,18,2.0,13.0,67,0.00,,,0.10,,2013-03-10 04:41:00,
2013-03-09 21:51:00,21.0,12.0,30.14,NNE,31,6.0,8.0,68,0.00,,,0.10,,2013-03-10 04:51:00,
2013-03-09 22:01:00,21.0,11.0,30.14,NNW,347,3.0,10.0,65,0.00,,,0.10,,2013-03-10 05:01:00,
2013-03-09 22:11:00,21.0,11.0,30.14,NNW,347,3.0,10.0,65,0.00,,,0.10,,2013-03-10 05:11:00,
2013-03-09 22:22:00,21.0,11.0,30.17,North,9,4.0,8.0,66,0.00,,,0.10,,2013-03-10 05:22:00,
2013-03-09 22:31:00,21.0,10.0,30.17,West,269,4.0,12.0,62,0.00,,,0.10,,2013-03-10 05:31:00,
2013-03-09 22:42:00,22.0,6.0,30.16,NNW,345,4.0,12.0,50,0.00,,,0.10,,2013-03-10 05:42:00,
2013-03-09 22:52:00,22.0,6.0,30.16,NNW,345,4.0,12.0,50,0.00,,,0.10,,2013-03-10 05:52:00,
2013-03-09 23:01:00,21.0,4.0,30.16,North,0,8.0,16.0,48,0.00,,,0.10,,2013-03-10 06:01:00,
2013-03-09 23:11:00,21.0,4.0,30.16,North,0,8.0,16.0,48,0.00,,,0.10,,2013-03-10 06:11:00,
2013-03-09 23:22:00,21.0,4.0,30.16,North,0,8.0,16.0,48,0.00,,,0.10,,2013-03-10 06:22:00,
2013-03-09 23:32:00,21.0,5.0,30.16,NNE,28,9.0,16.0,49,0.00,,,0.10,,2013-03-10 06:32:00,
2013-03-09 23:42:00,21.0,4.0,30.19,North,351,6.0,18.0,48,0.00,,,0.10,,2013-03-10 06:42:00,
2013-03-09 23:52:00,21.0,4.0,30.19,North,351,6.0,18.0,48,0.00,,,0.10,,2013-03-10 06:52:00,